createdAt,value
2022-11-15T00:01:31.626Z,837.35
2022-11-15T00:04:17.402Z,846.53
2022-11-15T00:07:03.239Z,845.53
2022-11-15T00:09:49.164Z,844.70
2022-11-15T00:12:35.117Z,846.40
2022-11-15T00:15:20.590Z,847.47
2022-11-15T00:18:13.291Z,850.08
2022-11-15T00:21:05.168Z,849.72
2022-11-15T00:23:50.807Z,850.17
2022-11-15T00:26:36.451Z,841.30
2022-11-15T00:29:22.497Z,841.15
2022-11-15T00:32:07.898Z,842.67
2022-11-15T00:34:53.650Z,841.83
2022-11-15T00:37:39.610Z,847.42
2022-11-15T00:40:25.395Z,844.83
2022-11-15T00:43:11.300Z,843.05
2022-11-15T00:45:56.771Z,835.20
2022-11-15T00:48:42.171Z,835.25
2022-11-15T00:51:27.642Z,833.13
2022-11-15T00:54:13.305Z,837.22
2022-11-15T00:56:58.887Z,836.85
2022-11-15T00:59:44.675Z,838.97
2022-11-15T01:02:30.103Z,841.10
2022-11-15T01:05:15.499Z,843.35
2022-11-15T01:08:01.241Z,840.75
2022-11-15T01:10:48.326Z,839.70
2022-11-15T01:13:35.156Z,836.00
2022-11-15T01:16:21.017Z,836.83
2022-11-15T01:19:06.922Z,833.97
2022-11-15T01:21:53.015Z,841.38
2022-11-15T01:24:38.930Z,838.92
2022-11-15T01:27:24.791Z,832.10
2022-11-15T01:30:10.810Z,832.13
2022-11-15T01:32:56.340Z,829.40
2022-11-15T01:35:41.698Z,831.92
2022-11-15T01:38:27.193Z,837.92
2022-11-15T01:41:21.481Z,845.20
2022-11-15T01:44:31.995Z,841.80
2022-11-15T01:47:33.033Z,841.58
2022-11-15T01:50:23.044Z,843.15
2022-11-15T01:53:09.023Z,842.78
2022-11-15T01:55:55.578Z,846.72
2022-11-15T01:58:42.043Z,846.67
2022-11-15T02:01:28.217Z,846.33
2022-11-15T02:04:17.794Z,844.63
2022-11-15T02:07:08.089Z,849.63
2022-11-15T02:09:54.258Z,845.53
2022-11-15T02:12:40.986Z,847.35
2022-11-15T02:15:33.591Z,847.67
2022-11-15T02:18:32.052Z,846.45
2022-11-15T02:21:23.288Z,846.55
2022-11-15T02:24:50.309Z,846.40
2022-11-15T02:28:11.291Z,849.87
2022-11-15T02:31:14.565Z,840.08
2022-11-15T02:34:24.058Z,840.63
2022-11-15T02:37:17.449Z,840.05
2022-11-15T02:40:17.911Z,837.47
2022-11-15T02:43:37.001Z,834.65
2022-11-15T02:47:02.050Z,827.72
2022-11-15T02:49:51.099Z,834.17
2022-11-15T02:52:36.594Z,832.65
2022-11-15T02:55:28.544Z,834.70
2022-11-15T02:58:17.381Z,840.53
2022-11-15T03:01:36.890Z,836.33
2022-11-15T03:04:34.687Z,834.35
2022-11-15T03:07:33.806Z,833.00
2022-11-15T03:10:27.364Z,831.38
2022-11-15T03:13:35.369Z,832.17
2022-11-15T03:16:59.434Z,819.22
2022-11-15T03:19:48.128Z,826.50
2022-11-15T03:22:43.386Z,825.42
2022-11-15T03:25:30.172Z,821.38
2022-11-15T03:28:28.995Z,828.88
2022-11-15T03:31:35.139Z,834.90
2022-11-15T03:34:45.069Z,832.90
2022-11-15T03:38:05.762Z,837.97
2022-11-15T03:40:59.885Z,836.00
2022-11-15T03:44:07.659Z,837.80
2022-11-15T03:47:03.952Z,835.57
2022-11-15T03:49:58.050Z,837.30
2022-11-15T03:52:44.080Z,839.10
2022-11-15T03:55:29.478Z,833.87
2022-11-15T03:58:15.486Z,835.83
2022-11-15T04:01:01.603Z,837.05
2022-11-15T04:03:46.760Z,838.67
2022-11-15T04:06:32.617Z,848.95
2022-11-15T04:09:18.149Z,848.30
2022-11-15T04:12:03.976Z,849.65
2022-11-15T04:15:08.065Z,853.45
2022-11-15T04:17:55.931Z,850.03
2022-11-15T04:21:02.156Z,846.15
2022-11-15T04:23:53.961Z,845.60
2022-11-15T04:26:39.550Z,852.80
2022-11-15T04:29:37.691Z,852.65
2022-11-15T04:32:22.911Z,842.33
2022-11-15T04:35:08.643Z,845.80
2022-11-15T04:37:54.438Z,845.88
2022-11-15T04:40:39.773Z,847.05
2022-11-15T04:43:26.820Z,843.75
2022-11-15T04:46:12.252Z,842.25
2022-11-15T04:48:59.227Z,847.20
2022-11-15T04:51:45.180Z,841.50
2022-11-15T04:54:30.626Z,848.88
2022-11-15T04:57:16.269Z,846.40
2022-11-15T05:00:03.009Z,846.88
2022-11-15T05:03:06.585Z,849.50
2022-11-15T05:05:52.129Z,843.38
2022-11-15T05:08:37.710Z,837.00
2022-11-15T05:11:23.919Z,846.35
2022-11-15T05:14:09.663Z,846.03
2022-11-15T05:16:55.404Z,842.73
2022-11-15T05:19:41.063Z,843.85
2022-11-15T05:22:27.534Z,845.85
2022-11-15T05:25:13.127Z,845.70
2022-11-15T05:27:59.147Z,837.83
2022-11-15T05:30:44.558Z,845.03
2022-11-15T05:33:31.181Z,836.53
2022-11-15T05:36:32.165Z,845.65
2022-11-15T05:39:17.879Z,842.53
2022-11-15T05:42:15.046Z,837.33
2022-11-15T05:45:02.608Z,837.88
2022-11-15T05:47:50.390Z,845.45
2022-11-15T05:50:39.878Z,849.03
2022-11-15T05:53:26.653Z,837.92
2022-11-15T05:56:13.392Z,835.42
2022-11-15T05:58:59.906Z,837.58
2022-11-15T06:01:46.156Z,835.47
2022-11-15T06:04:31.737Z,840.85
2022-11-15T06:07:17.461Z,829.28
2022-11-15T06:10:02.851Z,807.72
2022-11-15T06:12:48.318Z,819.20
2022-11-15T06:15:37.332Z,831.63
2022-11-15T06:18:22.763Z,820.78
2022-11-15T06:21:08.742Z,830.85
2022-11-15T06:23:54.357Z,831.92
2022-11-15T06:26:39.652Z,828.97
2022-11-15T06:29:25.218Z,824.33
2022-11-15T06:32:10.872Z,825.93
2022-11-15T06:34:56.462Z,825.28
2022-11-15T06:37:42.541Z,825.00
2022-11-15T06:40:28.219Z,826.10
2022-11-15T06:43:14.060Z,829.50
2022-11-15T06:46:04.055Z,830.80
2022-11-15T06:48:52.061Z,829.63
2022-11-15T06:51:37.668Z,831.70
2022-11-15T06:54:25.244Z,837.53
2022-11-15T06:57:10.394Z,827.47
2022-11-15T06:59:56.419Z,833.27
2022-11-15T07:02:41.730Z,827.20
2022-11-15T07:05:27.718Z,828.97
2022-11-15T07:08:13.330Z,823.40
2022-11-15T07:11:01.335Z,825.58
2022-11-15T07:13:46.606Z,824.03
2022-11-15T07:16:32.314Z,816.13
2022-11-15T07:19:17.794Z,823.88
2022-11-15T07:22:03.618Z,833.75
2022-11-15T07:24:49.029Z,827.97
2022-11-15T07:27:34.984Z,825.90
2022-11-15T07:30:20.641Z,820.00
2022-11-15T07:33:06.462Z,824.03
2022-11-15T07:35:51.913Z,824.47
2022-11-15T07:38:42.534Z,828.67
2022-11-15T07:41:28.510Z,820.85
2022-11-15T07:44:13.993Z,825.70
2022-11-15T07:46:59.371Z,827.90
2022-11-15T07:49:45.078Z,832.67
2022-11-15T07:52:30.314Z,830.55
2022-11-15T07:55:15.879Z,825.23
2022-11-15T07:58:03.306Z,822.90
2022-11-15T08:00:48.670Z,831.30
2022-11-15T08:03:34.813Z,826.65
2022-11-15T08:06:20.439Z,840.53
2022-11-15T08:09:05.784Z,829.80
2022-11-15T08:11:50.978Z,828.35
2022-11-15T08:14:37.674Z,825.45
2022-11-15T08:17:24.159Z,829.05
2022-11-15T08:20:10.046Z,821.80
2022-11-15T08:23:00.762Z,831.75
2022-11-15T08:25:45.926Z,840.88
2022-11-15T08:28:32.634Z,838.03
2022-11-15T08:31:19.492Z,835.88
2022-11-15T08:34:06.882Z,850.97
2022-11-15T08:36:52.187Z,841.70
2022-11-15T08:39:38.775Z,836.35
2022-11-15T08:42:24.292Z,843.80
2022-11-15T08:45:10.330Z,842.90
2022-11-15T08:47:56.352Z,851.97
2022-11-15T08:50:44.555Z,852.33
2022-11-15T08:53:29.904Z,852.43
2022-11-15T08:56:16.353Z,852.28
2022-11-15T08:59:02.839Z,856.90
2022-11-15T09:01:49.621Z,843.58
2022-11-15T09:04:34.674Z,850.08
2022-11-15T09:07:21.250Z,836.60
2022-11-15T09:10:07.183Z,841.03
2022-11-15T09:12:52.514Z,843.20
2022-11-15T09:15:38.050Z,842.25
2022-11-15T09:18:24.406Z,843.65
2022-11-15T09:21:10.716Z,836.63
2022-11-15T09:23:56.414Z,841.57
2022-11-15T09:26:42.673Z,843.70
2022-11-15T09:29:28.224Z,837.45
2022-11-15T09:32:13.880Z,838.03
2022-11-15T09:34:59.246Z,838.55
2022-11-15T09:37:44.727Z,837.03
2022-11-15T09:40:32.314Z,847.60
2022-11-15T09:43:42.243Z,854.22
2022-11-15T09:46:49.050Z,849.67
2022-11-15T09:49:34.614Z,849.33
2022-11-15T09:52:17.728Z,850.67
2022-11-15T09:54:54.717Z,846.65
2022-11-15T09:57:45.463Z,844.67
2022-11-15T10:03:29.889Z,846.13
2022-11-15T10:06:00.933Z,845.50
2022-11-15T10:08:51.233Z,846.08
2022-11-15T10:11:40.935Z,848.45
2022-11-15T10:14:19.467Z,842.45
2022-11-15T10:16:49.210Z,838.20
2022-11-15T10:19:44.795Z,839.70
2022-11-15T10:22:29.548Z,841.03
2022-11-15T10:25:14.566Z,843.28
2022-11-15T10:27:43.461Z,839.40
2022-11-15T10:30:17.124Z,842.00
2022-11-15T10:32:46.999Z,839.60
2022-11-15T10:35:26.341Z,844.53
2022-11-15T10:37:57.542Z,851.78
2022-11-15T10:40:25.114Z,842.75
2022-11-15T10:43:16.483Z,840.05
2022-11-15T10:45:44.243Z,841.28
2022-11-15T10:48:13.727Z,837.08
2022-11-15T10:50:43.524Z,848.55
2022-11-15T10:53:34.318Z,835.95
2022-11-15T10:56:14.572Z,841.35
2022-11-15T10:58:44.904Z,844.25
2022-11-15T11:01:20.892Z,838.87
2022-11-15T11:04:03.920Z,844.60
2022-11-15T11:06:31.446Z,860.80
2022-11-15T11:09:04.505Z,852.45
2022-11-15T11:11:49.675Z,855.67
2022-11-15T11:14:22.939Z,856.40
2022-11-15T11:16:55.057Z,851.85
2022-11-15T11:19:32.587Z,846.03
2022-11-15T11:22:26.906Z,843.63
2022-11-15T11:25:22.222Z,842.20
2022-11-15T11:27:56.861Z,838.97
2022-11-15T11:30:57.491Z,841.65
2022-11-15T11:33:38.884Z,840.72
2022-11-15T11:36:12.604Z,831.70
2022-11-15T11:39:10.585Z,842.87
2022-11-15T11:41:58.568Z,841.23
2022-11-15T11:44:38.689Z,836.30
2022-11-15T11:47:21.455Z,838.35
2022-11-15T11:49:54.817Z,835.45
2022-11-15T11:52:39.968Z,834.50
2022-11-15T11:55:25.282Z,832.05
2022-11-15T11:58:23.066Z,830.53
2022-11-15T12:01:13.487Z,828.92
2022-11-15T12:03:51.018Z,822.65
2022-11-15T12:06:50.102Z,824.55
2022-11-15T12:09:34.932Z,820.42
2022-11-15T12:12:45.307Z,827.40
2022-11-15T12:15:21.025Z,838.58
2022-11-15T12:17:48.313Z,837.60
2022-11-15T12:20:24.168Z,835.17
2022-11-15T12:23:08.854Z,841.85
2022-11-15T12:25:58.922Z,842.30
2022-11-15T12:28:28.547Z,838.88
2022-11-15T12:31:02.572Z,838.38
2022-11-15T12:33:43.109Z,832.85
2022-11-15T12:36:34.946Z,828.90
2022-11-15T12:39:05.752Z,825.17
2022-11-15T12:42:05.234Z,832.50
2022-11-15T12:44:32.756Z,832.77
2022-11-15T12:46:59.499Z,839.53
2022-11-15T12:49:29.233Z,828.40
2022-11-15T12:52:06.939Z,828.35
2022-11-15T12:54:42.522Z,824.95
2022-11-15T12:57:09.309Z,830.10
2022-11-15T12:59:56.397Z,831.47
2022-11-15T13:02:38.414Z,838.75
2022-11-15T13:05:20.401Z,835.05
2022-11-15T13:07:50.993Z,831.80
2022-11-15T13:10:30.882Z,832.17
2022-11-15T13:13:08.394Z,828.58
2022-11-15T13:15:42.858Z,831.97
2022-11-15T13:18:34.579Z,825.43
2022-11-15T13:21:22.998Z,832.20
2022-11-15T13:23:54.707Z,833.30
2022-11-15T13:26:23.351Z,830.33
2022-11-15T13:28:54.242Z,826.25
2022-11-15T13:31:42.737Z,835.60
2022-11-15T13:34:51.152Z,832.00
2022-11-15T13:37:21.539Z,828.13
2022-11-15T13:39:49.639Z,831.55
2022-11-15T13:42:21.037Z,833.10
2022-11-15T13:45:05.211Z,833.43
2022-11-15T13:47:33.160Z,832.77
2022-11-15T13:50:01.755Z,829.05
2022-11-15T13:52:32.684Z,829.15
2022-11-15T13:55:10.000Z,831.92
2022-11-15T13:57:58.538Z,832.25
2022-11-15T14:00:45.673Z,834.05
2022-11-15T14:03:28.589Z,834.20
2022-11-15T14:06:13.255Z,835.83
2022-11-15T14:09:00.237Z,842.15
2022-11-15T14:11:27.667Z,840.85
2022-11-15T14:14:14.898Z,845.75
2022-11-15T14:16:47.455Z,846.28
2022-11-15T14:19:35.805Z,842.85
2022-11-15T14:22:12.554Z,846.63
2022-11-15T14:24:39.478Z,847.77
2022-11-15T14:27:26.134Z,847.58
2022-11-15T14:29:53.381Z,847.75
2022-11-15T14:32:22.950Z,839.38
2022-11-15T14:34:55.082Z,844.47
2022-11-15T14:37:35.471Z,837.15
2022-11-15T14:40:06.559Z,839.15
2022-11-15T14:42:33.585Z,844.80
2022-11-15T14:45:01.366Z,836.15
2022-11-15T14:47:28.223Z,838.28
2022-11-15T14:49:55.058Z,830.80
2022-11-15T14:52:32.179Z,844.65
2022-11-15T14:55:00.568Z,842.15
2022-11-15T14:57:28.349Z,843.43
2022-11-15T14:59:55.266Z,843.75
2022-11-15T15:02:27.704Z,844.65
2022-11-15T15:04:56.023Z,846.25
2022-11-15T15:07:23.578Z,836.35
2022-11-15T15:09:50.517Z,837.10
2022-11-15T15:12:19.950Z,840.15
2022-11-15T15:14:48.244Z,843.53
2022-11-15T15:17:15.857Z,839.85
2022-11-15T15:19:43.004Z,835.63
2022-11-15T15:22:16.488Z,832.63
2022-11-15T15:24:47.320Z,835.10
2022-11-15T15:27:15.467Z,833.23
2022-11-15T15:29:42.172Z,830.97
2022-11-15T15:32:11.813Z,839.35
2022-11-15T15:34:38.594Z,829.38
2022-11-15T15:37:15.558Z,838.53
2022-11-15T15:39:42.326Z,835.10
2022-11-15T15:42:09.090Z,839.05
2022-11-15T15:44:35.919Z,836.42
2022-11-15T15:47:02.727Z,841.90
2022-11-15T15:49:29.474Z,832.08
2022-11-15T15:51:56.310Z,839.17
2022-11-15T15:54:24.007Z,833.80
2022-11-15T15:56:55.933Z,840.70
2022-11-15T15:59:24.900Z,836.88
2022-11-15T16:01:51.641Z,838.25
2022-11-15T16:04:18.460Z,837.85
2022-11-15T16:06:45.662Z,834.30
2022-11-15T16:09:16.642Z,831.35
2022-11-15T16:11:46.831Z,848.55
2022-11-15T16:14:13.816Z,859.40
2022-11-15T16:16:40.748Z,836.03
2022-11-15T16:19:07.499Z,818.50
2022-11-15T16:21:34.364Z,839.35
2022-11-15T16:24:01.045Z,851.83
2022-11-15T16:26:30.629Z,857.42
2022-11-15T16:28:58.812Z,850.33
2022-11-15T16:31:25.587Z,845.20
2022-11-15T16:33:52.314Z,844.88
2022-11-15T16:36:27.122Z,840.75
2022-11-15T16:38:56.872Z,841.35
2022-11-15T16:41:23.629Z,841.42
2022-11-15T16:43:50.447Z,841.03
2022-11-15T16:46:24.955Z,836.25
2022-11-15T16:48:53.912Z,837.60
2022-11-15T16:51:21.157Z,841.97
2022-11-15T16:53:49.140Z,832.45
2022-11-15T16:56:30.375Z,840.38
2022-11-15T16:58:59.026Z,835.00
2022-11-15T17:01:28.298Z,827.43
2022-11-15T17:03:55.862Z,819.22
2022-11-15T17:06:24.121Z,830.90
2022-11-15T17:08:50.960Z,832.90
2022-11-15T17:11:20.947Z,834.28
2022-11-15T17:13:49.371Z,833.03
2022-11-15T17:16:17.609Z,826.08
2022-11-15T17:18:47.589Z,830.40
2022-11-15T17:21:19.258Z,827.60
2022-11-15T17:23:46.579Z,830.35
2022-11-15T17:26:29.469Z,827.38
2022-11-15T17:29:01.436Z,823.63
2022-11-15T17:31:30.724Z,828.25
2022-11-15T17:33:57.531Z,820.40
2022-11-15T17:36:24.353Z,826.17
2022-11-15T17:38:58.097Z,835.73
2022-11-15T17:41:26.386Z,832.30
2022-11-15T17:43:53.301Z,830.72
2022-11-15T17:46:21.136Z,835.03
2022-11-15T17:48:48.806Z,829.03
2022-11-15T17:51:17.458Z,825.03
2022-11-15T17:53:49.169Z,829.22
2022-11-15T17:56:18.592Z,829.50
2022-11-15T17:58:56.601Z,836.05
2022-11-15T18:01:26.951Z,827.80
2022-11-15T18:03:54.607Z,828.20
2022-11-15T18:06:23.750Z,828.80
2022-11-15T18:08:52.076Z,835.70
2022-11-15T18:11:21.716Z,829.85
2022-11-15T18:13:52.500Z,831.90
2022-11-15T18:16:22.429Z,833.40
2022-11-15T18:18:49.410Z,820.50
2022-11-15T18:21:24.553Z,823.25
2022-11-15T18:23:59.658Z,828.22
2022-11-15T18:26:29.069Z,832.78
2022-11-15T18:29:01.934Z,835.45
2022-11-15T18:31:30.994Z,829.30
2022-11-15T18:34:00.036Z,835.05
2022-11-15T18:36:29.579Z,834.67
2022-11-15T18:38:58.296Z,837.25
2022-11-15T18:41:28.740Z,825.95
2022-11-15T18:43:59.735Z,833.77
2022-11-15T18:46:29.198Z,835.80
2022-11-15T18:48:58.111Z,830.53
2022-11-15T18:51:26.461Z,833.53
2022-11-15T18:53:55.095Z,829.92
2022-11-15T18:56:23.572Z,840.83
2022-11-15T18:58:52.177Z,839.90
2022-11-15T19:01:20.410Z,829.60
2022-11-15T19:03:49.543Z,841.50
2022-11-15T19:06:21.969Z,835.58
2022-11-15T19:08:50.165Z,829.95
2022-11-15T19:11:21.576Z,834.30
2022-11-15T19:13:52.425Z,837.88
2022-11-15T19:16:19.254Z,837.75
2022-11-15T19:18:45.965Z,841.65
2022-11-15T19:21:15.991Z,841.72
2022-11-15T19:23:43.380Z,842.08
2022-11-15T19:26:15.374Z,841.57
2022-11-15T19:28:43.953Z,839.20
2022-11-15T19:31:15.699Z,830.42
2022-11-15T19:33:44.033Z,833.90
2022-11-15T19:36:15.611Z,836.42
2022-11-15T19:38:42.595Z,834.17
2022-11-15T19:41:18.013Z,837.45
2022-11-15T19:43:47.914Z,831.73
2022-11-15T19:46:15.402Z,838.60
2022-11-15T19:48:42.412Z,836.83
2022-11-15T19:51:30.191Z,836.55
2022-11-15T19:54:01.234Z,836.53
2022-11-15T19:56:28.030Z,838.90
2022-11-15T19:58:56.228Z,837.75
2022-11-15T20:01:26.035Z,826.78
2022-11-15T20:03:55.326Z,829.97
2022-11-15T20:06:24.426Z,823.63
2022-11-15T20:08:51.388Z,827.65
2022-11-15T20:11:19.078Z,830.17
2022-11-15T20:13:45.922Z,835.90
2022-11-15T20:16:17.089Z,833.90
2022-11-15T20:18:44.131Z,825.00
2022-11-15T20:21:11.274Z,832.47
2022-11-15T20:23:38.938Z,825.90
2022-11-15T20:26:07.869Z,832.42
2022-11-15T20:28:37.985Z,827.95
2022-11-15T20:31:05.849Z,828.85
2022-11-15T20:33:32.750Z,828.10
2022-11-15T20:36:07.230Z,824.87
2022-11-15T20:38:34.719Z,822.00
2022-11-15T20:41:01.938Z,827.73
2022-11-15T20:43:28.955Z,830.93
2022-11-15T20:45:56.014Z,833.60
2022-11-15T20:48:22.935Z,829.65
2022-11-15T20:50:49.681Z,833.40
2022-11-15T20:53:19.027Z,832.40
2022-11-15T20:55:48.931Z,829.35
2022-11-15T20:58:16.684Z,824.63
2022-11-15T21:00:45.339Z,824.50
2022-11-15T21:03:13.593Z,828.88
2022-11-15T21:05:43.194Z,836.13
2022-11-15T21:08:12.910Z,830.85
2022-11-15T21:10:59.069Z,839.53
2022-11-15T21:13:26.649Z,831.88
2022-11-15T21:15:57.582Z,823.53
2022-11-15T21:18:25.843Z,818.85
2022-11-15T21:20:53.655Z,821.47
2022-11-15T21:23:20.905Z,822.78
2022-11-15T21:25:52.179Z,820.50
2022-11-15T21:28:19.226Z,824.80
2022-11-15T21:30:59.682Z,823.95
2022-11-15T21:33:27.637Z,824.45
2022-11-15T21:35:55.825Z,829.70
2022-11-15T21:38:24.041Z,817.22
2022-11-15T21:40:52.058Z,824.80
2022-11-15T21:43:20.926Z,822.00
2022-11-15T21:46:02.326Z,816.93
2022-11-15T21:48:31.767Z,817.33
2022-11-15T21:51:10.949Z,817.17
2022-11-15T21:53:37.682Z,810.38
2022-11-15T21:56:06.744Z,817.67
2022-11-15T21:58:33.858Z,811.47
2022-11-15T22:01:20.019Z,797.88
2022-11-15T22:03:46.871Z,808.83
2022-11-15T22:06:17.680Z,815.80
2022-11-15T22:08:46.029Z,820.92
2022-11-15T22:11:13.362Z,818.35
2022-11-15T22:13:41.476Z,819.45
2022-11-15T22:16:09.094Z,818.83
2022-11-15T22:18:36.778Z,826.80
2022-11-15T22:21:11.894Z,827.30
2022-11-15T22:23:39.266Z,823.67
2022-11-15T22:26:06.990Z,822.07
2022-11-15T22:28:34.539Z,823.10
2022-11-15T22:31:01.818Z,827.05
2022-11-15T22:33:30.742Z,820.60
2022-11-15T22:35:58.010Z,819.92
2022-11-15T22:38:25.965Z,822.40
2022-11-15T22:40:53.153Z,828.78
2022-11-15T22:43:21.864Z,827.33
2022-11-15T22:45:53.538Z,832.13
2022-11-15T22:48:22.771Z,826.28
2022-11-15T22:50:50.751Z,830.15
2022-11-15T22:53:18.349Z,827.08
2022-11-15T22:55:53.606Z,835.90
2022-11-15T22:58:21.631Z,839.33
2022-11-15T23:00:50.213Z,850.67
2022-11-15T23:03:17.874Z,845.47
2022-11-15T23:05:44.730Z,842.42
2022-11-15T23:08:12.250Z,841.97
2022-11-15T23:10:58.933Z,839.25
2022-11-15T23:13:27.885Z,842.22
2022-11-15T23:16:23.879Z,840.53
2022-11-15T23:18:58.820Z,849.17
2022-11-15T23:21:47.142Z,849.40
2022-11-15T23:24:14.905Z,843.00
2022-11-15T23:26:43.247Z,840.28
2022-11-15T23:29:12.316Z,834.30
2022-11-15T23:32:02.165Z,829.85
2022-11-15T23:34:31.038Z,833.63
2022-11-15T23:36:59.037Z,835.45
2022-11-15T23:39:26.194Z,835.47
2022-11-15T23:41:53.006Z,835.72
2022-11-15T23:44:19.791Z,835.22
2022-11-15T23:46:47.757Z,834.72
2022-11-15T23:49:14.683Z,842.53
2022-11-15T23:51:41.495Z,834.97
2022-11-15T23:54:08.570Z,839.60
2022-11-15T23:56:35.465Z,839.10
2022-11-15T23:59:02.329Z,848.80
